Time;durP1;ratioP1;P1;durP2;ratioP2;P2;SDS_P1;SDS_P2;PMS_P1;PMS_P2;Temp;Humidity;BMP_temperature;BMP_pressure;BME280_temperature;BME280_humidity;BME280_pressure;Samples;Min_cycle;Max_cycle;Signal;HPM_P1;HPM_P2
2021/12/10 00:01:57;;;;;;;82.13;42.67;;;0.80;99.90;;;;;;5083810;28;20260;-50
2021/12/10 00:04:30;;;;;;;76.47;40.30;;;0.60;99.90;;;;;;5080147;28;20274;-55
2021/12/10 00:07:03;;;;;;;83.07;43.60;;;0.70;99.90;;;;;;5078586;28;20348;-53
2021/12/10 00:09:41;;;;;;;80.53;42.97;;;0.70;99.90;;;;;;5062201;28;20510;-52
2021/12/10 00:12:24;;;;;;;91.47;45.42;;;0.60;99.90;;;;;;5082772;28;20215;-52
2021/12/10 00:14:53;;;;;;;81.65;40.83;;;0.60;99.90;;;;;;5077077;28;20191;-53
2021/12/10 00:17:21;;;;;;;75.07;45.10;;;0.70;99.90;;;;;;5080262;28;20201;-54
2021/12/10 00:19:54;;;;;;;78.97;43.20;;;0.70;99.90;;;;;;5080573;28;20195;-51
2021/12/10 00:22:28;;;;;;;77.75;42.42;;;0.90;99.90;;;;;;5079640;28;20218;-52
2021/12/10 00:24:55;;;;;;;81.18;43.13;;;0.80;99.90;;;;;;5081211;28;20199;-54
2021/12/10 00:27:32;;;;;;;85.43;44.53;;;0.70;99.90;;;;;;5078532;28;20203;-53
2021/12/10 00:30:08;;;;;;;74.68;42.97;;;0.70;99.90;;;;;;5078745;28;20405;-50
2021/12/10 00:32:41;;;;;;;91.05;42.60;;;0.70;99.90;;;;;;5079380;28;20447;-52
2021/12/10 00:35:13;;;;;;;85.88;43.60;;;0.60;99.90;;;;;;5079916;28;20576;-52
2021/12/10 00:37:40;;;;;;;97.05;43.28;;;0.70;99.90;;;;;;5079779;28;20252;-53
2021/12/10 00:40:11;;;;;;;93.72;46.53;;;0.50;99.90;;;;;;5079528;28;20452;-52
2021/12/10 00:42:39;;;;;;;90.97;45.80;;;0.50;99.90;;;;;;5079916;28;20218;-52
2021/12/10 00:45:09;;;;;;;89.95;46.92;;;0.50;99.90;;;;;;5079652;28;20233;-54
2021/12/10 00:47:37;;;;;;;85.07;46.05;;;0.50;99.90;;;;;;5079822;28;20199;-52
2021/12/10 00:50:20;;;;;;;93.53;47.00;;;0.50;99.90;;;;;;5079614;28;20244;-53
2021/12/10 00:52:49;;;;;;;107.25;47.05;;;0.60;99.90;;;;;;5079068;28;20447;-54
2021/12/10 00:55:16;;;;;;;80.82;40.92;;;0.70;99.90;;;;;;5079241;28;20203;-56
2021/12/10 00:57:44;;;;;;;80.07;44.67;;;0.60;99.90;;;;;;5079396;28;20203;-50
2021/12/10 01:00:16;;;;;;;76.30;43.88;;;0.50;99.90;;;;;;5072862;28;20258;-56
2021/12/10 01:02:44;;;;;;;83.78;45.13;;;0.50;99.90;;;;;;5079235;28;20222;-58
2021/12/10 01:05:12;;;;;;;96.18;47.15;;;0.60;99.90;;;;;;5078541;28;20217;-51
2021/12/10 01:07:40;;;;;;;92.78;47.97;;;0.70;99.90;;;;;;5077648;28;20199;-55
2021/12/10 01:10:23;;;;;;;87.20;43.85;;;0.70;99.90;;;;;;5079994;28;20237;-55
2021/12/10 01:12:54;;;;;;;90.38;47.50;;;0.80;99.90;;;;;;5079256;28;20223;-51
2021/12/10 01:15:42;;;;;;;87.28;44.47;;;0.80;99.90;;;;;;5079275;28;20437;-52
2021/12/10 01:23:56;;;;;;;85.28;42.25;;;0.90;99.90;;;;;;5075770;28;20207;-53
2021/12/10 01:29:40;;;;;;;89.40;48.17;;;1.00;99.90;;;;;;5072038;28;20563;-52
2021/12/10 01:32:15;;;;;;;89.40;47.63;;;0.80;99.90;;;;;;5078255;28;20614;-51
2021/12/10 01:34:43;;;;;;;93.78;46.45;;;0.80;99.90;;;;;;5078953;28;20220;-52
2021/12/10 01:37:11;;;;;;;92.10;45.42;;;0.70;99.90;;;;;;5079054;28;20251;-54
2021/12/10 01:39:41;;;;;;;109.53;45.80;;;1.00;99.90;;;;;;5077790;28;20513;-52
2021/12/10 01:44:58;;;;;;;100.38;45.92;;;1.10;99.90;;;;;;5078828;28;20214;-54
2021/12/10 01:47:32;;;;;;;90.15;48.42;;;1.00;99.90;;;;;;5078685;28;20602;-50
2021/12/10 01:50:00;;;;;;;96.75;45.63;;;1.00;99.90;;;;;;5076364;28;20234;-53
2021/12/10 01:52:27;;;;;;;84.47;46.88;;;0.90;99.90;;;;;;5078290;28;20282;-56
2021/12/10 01:54:58;;;;;;;97.45;46.33;;;1.00;99.90;;;;;;5079355;28;20400;-53
2021/12/10 01:57:30;;;;;;;89.75;46.47;;;1.00;99.90;;;;;;5078503;28;20195;-52
2021/12/10 01:59:58;;;;;;;90.85;44.97;;;1.40;99.90;;;;;;5077397;28;20199;-50
2021/12/10 02:02:29;;;;;;;97.65;43.75;;;1.30;99.90;;;;;;5077966;28;20295;-55
2021/12/10 02:04:57;;;;;;;94.90;42.55;;;1.40;99.90;;;;;;5075832;28;20426;-52
2021/12/10 02:07:27;;;;;;;98.32;46.97;;;1.30;99.90;;;;;;5078394;28;20590;-57
2021/12/10 02:09:55;;;;;;;89.88;48.95;;;1.20;99.90;;;;;;5076318;28;20199;-51
2021/12/10 02:12:22;;;;;;;95.93;47.28;;;1.00;99.90;;;;;;5078160;28;20561;-52
2021/12/10 02:14:59;;;;;;;93.13;45.10;;;0.90;99.90;;;;;;5078587;28;20203;-52
2021/12/10 02:17:38;;;;;;;100.78;50.20;;;0.80;99.90;;;;;;5079384;28;20497;-56
2021/12/10 02:20:16;;;;;;;94.28;49.75;;;0.80;99.90;;;;;;5079058;28;20210;-53
2021/12/10 02:22:44;;;;;;;99.70;46.95;;;0.80;99.90;;;;;;5080264;28;20231;-57
2021/12/10 02:25:14;;;;;;;100.63;49.03;;;0.70;99.90;;;;;;5086821;28;20230;-56
2021/12/10 02:27:41;;;;;;;81.78;45.83;;;0.70;99.90;;;;;;5081201;28;20272;-52
2021/12/10 02:30:10;;;;;;;91.13;43.50;;;0.60;99.90;;;;;;5078334;28;20195;-52
2021/12/10 02:32:38;;;;;;;88.00;48.55;;;0.70;99.90;;;;;;5075889;28;20399;-54
2021/12/10 02:35:07;;;;;;;97.25;47.55;;;0.50;99.90;;;;;;5077441;28;20268;-56
2021/12/10 02:37:35;;;;;;;95.65;46.67;;;0.60;99.90;;;;;;5080299;28;20199;-51
2021/12/10 02:40:04;;;;;;;103.43;48.55;;;0.60;99.90;;;;;;5082457;28;20264;-56
2021/12/10 02:42:31;;;;;;;101.00;49.13;;;0.60;99.90;;;;;;5082208;28;20218;-56
2021/12/10 02:44:59;;;;;;;97.47;50.67;;;0.50;99.90;;;;;;5079834;28;20240;-52
2021/12/10 02:47:26;;;;;;;86.80;45.10;;;0.40;99.90;;;;;;5081903;28;20261;-53
2021/12/10 02:49:53;;;;;;;92.40;48.67;;;0.40;99.90;;;;;;5079989;28;20205;-52
2021/12/10 02:52:23;;;;;;;87.32;46.13;;;0.60;99.90;;;;;;5081096;28;20226;-51
2021/12/10 02:54:50;;;;;;;95.97;48.85;;;0.60;99.90;;;;;;5081520;28;20199;-55
2021/12/10 02:57:20;;;;;;;114.22;52.10;;;0.80;99.90;;;;;;5081165;28;20221;-57
2021/12/10 02:59:47;;;;;;;91.82;47.33;;;0.60;99.90;;;;;;5081504;28;20561;-51
2021/12/10 03:02:17;;;;;;;92.18;47.55;;;0.90;99.90;;;;;;5078544;28;20537;-52
2021/12/10 03:04:44;;;;;;;107.07;53.05;;;0.90;99.90;;;;;;5080420;28;20247;-49
2021/12/10 03:07:16;;;;;;;93.18;48.80;;;0.80;99.90;;;;;;5081941;28;20298;-54
2021/12/10 03:09:48;;;;;;;97.90;50.65;;;0.80;99.90;;;;;;5078858;28;20195;-51
2021/12/10 03:12:18;;;;;;;80.82;44.65;;;0.70;99.90;;;;;;5081335;28;20544;-52
2021/12/10 03:14:48;;;;;;;98.20;48.58;;;0.80;99.90;;;;;;5062427;28;20555;-51
2021/12/10 03:17:22;;;;;;;109.10;62.75;;;0.70;99.90;;;;;;5081197;28;20240;-53
2021/12/10 03:19:49;;;;;;;98.63;51.80;;;0.60;99.90;;;;;;5079003;28;20579;-53
2021/12/10 03:22:17;;;;;;;110.88;53.65;;;0.70;99.90;;;;;;5076817;28;20587;-55
2021/12/10 03:24:45;;;;;;;121.53;60.70;;;0.50;99.90;;;;;;5080836;28;20203;-50
2021/12/10 03:27:14;;;;;;;111.03;59.17;;;0.80;99.90;;;;;;5080302;28;20226;-51
2021/12/10 03:29:43;;;;;;;129.68;57.05;;;0.70;99.90;;;;;;5081614;28;20360;-52
2021/12/10 03:32:17;;;;;;;112.18;51.45;;;0.70;99.90;;;;;;5079922;28;20226;-49
2021/12/10 03:34:46;;;;;;;122.70;57.22;;;0.90;99.90;;;;;;5079784;28;20375;-53
2021/12/10 03:37:17;;;;;;;118.07;56.17;;;1.00;99.90;;;;;;5073989;28;20237;-54
2021/12/10 03:39:47;;;;;;;112.72;55.30;;;0.80;99.90;;;;;;5079793;28;20199;-54
2021/12/10 03:42:15;;;;;;;108.68;53.33;;;0.60;99.90;;;;;;5078848;28;20222;-54
2021/12/10 03:44:43;;;;;;;116.57;52.08;;;0.60;99.90;;;;;;5080874;28;20375;-52
2021/12/10 03:47:11;;;;;;;104.55;51.92;;;0.70;99.90;;;;;;5080438;28;20268;-53
2021/12/10 03:49:40;;;;;;;121.70;60.17;;;0.90;99.90;;;;;;5080209;28;20202;-48
2021/12/10 03:52:09;;;;;;;102.40;50.58;;;1.00;99.90;;;;;;5080077;28;20288;-54
2021/12/10 03:54:41;;;;;;;103.38;52.17;;;1.00;99.90;;;;;;5080367;28;20547;-52
2021/12/10 03:57:09;;;;;;;95.38;49.08;;;1.20;99.90;;;;;;5080706;28;20209;-53
2021/12/10 03:59:38;;;;;;;103.28;56.38;;;1.20;99.90;;;;;;5073557;28;20207;-52
2021/12/10 04:02:08;;;;;;;109.18;54.55;;;1.20;99.90;;;;;;5062449;28;20260;-54
2021/12/10 04:04:43;;;;;;;116.70;53.63;;;1.20;99.90;;;;;;5078751;28;20221;-53
2021/12/10 04:07:15;;;;;;;99.18;50.30;;;1.10;99.90;;;;;;5080224;28;20240;-52
2021/12/10 04:09:43;;;;;;;88.93;48.75;;;1.00;99.90;;;;;;5078536;28;20225;-48
2021/12/10 04:12:11;;;;;;;102.70;54.97;;;1.10;99.90;;;;;;5078927;28;20215;-52
2021/12/10 04:14:39;;;;;;;93.68;47.80;;;1.10;99.90;;;;;;5078376;28;20240;-52
2021/12/10 04:17:07;;;;;;;110.57;53.00;;;1.10;99.90;;;;;;5080227;28;20202;-54
2021/12/10 04:19:36;;;;;;;112.75;53.10;;;1.00;99.90;;;;;;5079515;28;20236;-54
2021/12/10 04:22:07;;;;;;;114.07;53.72;;;0.80;99.90;;;;;;5080238;28;20231;-51
2021/12/10 04:24:37;;;;;;;94.55;50.50;;;0.80;99.90;;;;;;5079828;28;20268;-54
2021/12/10 04:27:07;;;;;;;102.32;49.13;;;0.90;99.90;;;;;;5077365;28;20260;-55
2021/12/10 04:29:35;;;;;;;105.38;49.35;;;1.20;99.90;;;;;;5078413;28;20195;-55
2021/12/10 04:32:04;;;;;;;93.43;52.50;;;1.10;99.90;;;;;;5079280;28;20230;-55
2021/12/10 04:34:32;;;;;;;95.65;47.78;;;1.10;99.90;;;;;;5078577;28;20241;-56
2021/12/10 04:37:01;;;;;;;99.50;52.85;;;1.20;99.90;;;;;;5079750;28;20298;-50
2021/12/10 04:39:29;;;;;;;90.25;48.03;;;1.40;99.90;;;;;;5079762;28;20207;-53
2021/12/10 04:41:57;;;;;;;88.13;46.78;;;1.50;99.90;;;;;;5079150;28;20222;-53
2021/12/10 04:44:24;;;;;;;93.78;48.13;;;1.40;99.90;;;;;;5079548;28;20199;-53
2021/12/10 04:46:51;;;;;;;117.43;56.40;;;1.10;99.90;;;;;;5079085;28;20722;-50
2021/12/10 04:49:19;;;;;;;104.60;54.38;;;0.90;99.90;;;;;;5079690;28;20217;-53
2021/12/10 04:51:52;;;;;;;114.75;55.22;;;1.00;99.90;;;;;;5079901;28;20215;-52
2021/12/10 04:54:21;;;;;;;106.82;54.10;;;0.90;99.90;;;;;;5080517;28;20195;-51
2021/12/10 04:56:50;;;;;;;106.22;49.05;;;0.90;99.90;;;;;;5080294;28;20264;-52
2021/12/10 04:59:19;;;;;;;96.32;52.85;;;1.10;99.90;;;;;;5072781;28;20205;-55
2021/12/10 05:01:48;;;;;;;109.35;52.20;;;1.20;99.90;;;;;;5081233;28;20219;-53
2021/12/10 05:04:16;;;;;;;105.38;48.97;;;1.40;99.90;;;;;;5074573;28;20377;-49
2021/12/10 05:06:43;;;;;;;90.40;47.90;;;1.50;99.90;;;;;;5081240;28;20260;-50
2021/12/10 05:09:12;;;;;;;88.85;48.83;;;1.70;99.90;;;;;;5078536;28;20195;-52
2021/12/10 05:11:40;;;;;;;89.38;49.70;;;1.40;99.90;;;;;;5076649;28;20229;-50
2021/12/10 05:14:09;;;;;;;101.72;48.60;;;1.50;99.90;;;;;;5074309;28;20531;-49
2021/12/10 05:16:42;;;;;;;91.15;45.33;;;1.40;99.90;;;;;;5070406;28;20204;-52
2021/12/10 05:19:11;;;;;;;93.53;43.35;;;1.30;99.90;;;;;;5080143;28;20198;-53
2021/12/10 05:21:40;;;;;;;92.85;48.10;;;1.30;99.90;;;;;;5079477;28;20227;-56
2021/12/10 05:24:09;;;;;;;95.15;45.25;;;1.40;99.90;;;;;;5080295;28;20405;-50
2021/12/10 05:26:37;;;;;;;96.85;48.72;;;1.50;99.90;;;;;;5079967;28;20230;-51
2021/12/10 05:29:05;;;;;;;108.28;49.65;;;1.20;99.90;;;;;;5080039;28;20195;-53
2021/12/10 05:31:36;;;;;;;79.55;44.05;;;0.90;99.90;;;;;;5079240;28;20222;-54
2021/12/10 05:34:03;;;;;;;87.35;50.20;;;0.80;99.90;;;;;;5079957;28;20201;-53
2021/12/10 05:36:31;;;;;;;85.82;45.85;;;0.90;99.90;;;;;;5079819;28;20264;-50
2021/12/10 05:38:58;;;;;;;106.00;54.17;;;0.90;99.90;;;;;;5079422;28;20266;-49
2021/12/10 05:41:25;;;;;;;105.85;52.38;;;0.90;99.90;;;;;;5079582;28;20227;-55
2021/12/10 05:43:52;;;;;;;100.70;49.38;;;0.70;99.90;;;;;;5079140;28;20484;-54
2021/12/10 05:46:20;;;;;;;83.22;44.33;;;0.50;99.90;;;;;;5079203;28;20210;-51
2021/12/10 05:48:47;;;;;;;97.68;48.33;;;0.50;99.90;;;;;;5070955;28;20501;-53
2021/12/10 05:51:15;;;;;;;97.70;45.72;;;0.50;99.90;;;;;;5061363;28;20214;-55
2021/12/10 05:53:42;;;;;;;106.65;51.63;;;0.20;99.90;;;;;;5071500;28;20341;-52
2021/12/10 05:56:10;;;;;;;95.70;48.55;;;0.20;99.90;;;;;;5072316;28;20576;-50
2021/12/10 05:58:38;;;;;;;94.95;48.28;;;0.10;99.90;;;;;;5061205;28;20440;-53
2021/12/10 06:01:09;;;;;;;98.72;52.97;;;0.20;99.90;;;;;;5070373;28;20269;-53
2021/12/10 06:03:39;;;;;;;88.07;52.45;;;0.20;99.90;;;;;;5078998;28;20210;-53
2021/12/10 06:06:07;;;;;;;81.70;47.45;;;0.20;99.90;;;;;;5063976;28;20465;-50
2021/12/10 06:08:35;;;;;;;106.03;52.22;;;0.20;99.90;;;;;;5061949;28;20235;-56
2021/12/10 06:11:06;;;;;;;107.72;53.63;;;0.30;99.90;;;;;;5065480;28;20280;-49
2021/12/10 06:13:35;;;;;;;98.00;50.95;;;0.50;99.90;;;;;;5072479;28;20196;-53
2021/12/10 06:16:03;;;;;;;109.47;50.35;;;0.50;99.90;;;;;;5062199;28;20202;-54
2021/12/10 06:18:31;;;;;;;102.38;51.55;;;0.50;99.90;;;;;;5063460;28;20208;-55
2021/12/10 06:20:59;;;;;;;95.65;50.83;;;0.40;99.90;;;;;;5075971;28;20234;-53
2021/12/10 06:23:26;;;;;;;97.50;48.80;;;0.50;99.90;;;;;;5074653;28;20268;-50
2021/12/10 06:25:54;;;;;;;101.50;52.78;;;0.50;99.90;;;;;;5083257;28;20277;-53
2021/12/10 06:28:21;;;;;;;104.55;50.85;;;0.50;99.90;;;;;;5082935;28;20230;-52
2021/12/10 06:30:51;;;;;;;92.85;46.95;;;0.50;99.90;;;;;;5074418;28;20437;-48
2021/12/10 06:33:21;;;;;;;100.38;49.45;;;0.50;99.90;;;;;;5079424;28;20210;-51
2021/12/10 06:35:50;;;;;;;105.82;50.78;;;0.50;99.90;;;;;;5081469;28;20202;-49
2021/12/10 06:38:21;;;;;;;81.30;44.70;;;0.50;99.90;;;;;;5082354;28;20198;-54
2021/12/10 06:40:53;;;;;;;92.05;49.45;;;0.40;99.90;;;;;;5081720;28;20198;-57
2021/12/10 06:43:21;;;;;;;77.00;46.60;;;0.30;99.90;;;;;;5086562;28;20256;-56
2021/12/10 06:45:51;;;;;;;82.50;45.53;;;0.40;99.90;;;;;;5082391;28;20397;-52
2021/12/10 06:48:22;;;;;;;91.38;47.33;;;0.50;99.90;;;;;;5084438;28;20271;-55
2021/12/10 06:50:54;;;;;;;100.60;49.55;;;0.50;99.90;;;;;;5082615;28;20448;-56
2021/12/10 06:53:24;;;;;;;101.18;53.20;;;0.40;99.90;;;;;;5083696;28;20207;-54
2021/12/10 06:55:51;;;;;;;93.32;49.42;;;0.30;99.90;;;;;;5083012;28;20195;-52
2021/12/10 06:58:22;;;;;;;105.78;52.60;;;0.40;99.90;;;;;;5083975;28;20303;-54
2021/12/10 07:00:56;;;;;;;94.35;47.42;;;0.50;99.90;;;;;;5065640;28;20195;-55
2021/12/10 07:03:27;;;;;;;106.15;54.75;;;0.50;99.90;;;;;;5082301;28;20199;-55
2021/12/10 07:05:58;;;;;;;103.80;53.20;;;0.40;99.90;;;;;;5082303;28;20203;-52
2021/12/10 07:08:28;;;;;;;100.30;48.22;;;0.40;99.90;;;;;;5081725;28;20211;-51
2021/12/10 07:10:56;;;;;;;100.15;51.92;;;0.40;99.90;;;;;;5082111;28;20290;-51
2021/12/10 07:13:24;;;;;;;112.95;51.47;;;0.40;99.90;;;;;;5082033;28;20444;-50
2021/12/10 07:15:53;;;;;;;95.95;53.92;;;0.50;99.90;;;;;;5082070;28;20195;-50
2021/12/10 07:18:22;;;;;;;96.88;51.17;;;0.50;99.90;;;;;;5082168;28;20273;-50
2021/12/10 07:20:52;;;;;;;84.95;47.88;;;0.60;99.90;;;;;;5082219;28;20203;-50
2021/12/10 07:23:21;;;;;;;100.53;52.97;;;0.50;99.90;;;;;;5081496;28;20206;-54
2021/12/10 07:25:50;;;;;;;102.28;54.75;;;0.70;99.90;;;;;;5081713;28;20281;-53
2021/12/10 07:28:18;;;;;;;91.50;50.72;;;0.70;99.90;;;;;;5081925;28;20222;-53
2021/12/10 07:30:47;;;;;;;93.65;50.13;;;0.80;99.90;;;;;;5081152;28;20420;-51
2021/12/10 07:33:16;;;;;;;87.38;47.78;;;0.80;99.90;;;;;;5081793;28;20508;-53
2021/12/10 07:35:46;;;;;;;98.18;48.20;;;0.50;99.90;;;;;;5081147;28;20269;-54
2021/12/10 07:38:13;;;;;;;90.43;48.67;;;0.40;99.90;;;;;;5081945;28;20225;-53
2021/12/10 07:40:41;;;;;;;91.93;49.40;;;0.30;99.90;;;;;;5081209;28;20199;-55
2021/12/10 07:43:09;;;;;;;87.90;47.70;;;0.30;99.90;;;;;;5081570;28;20244;-49
2021/12/10 07:45:37;;;;;;;101.30;49.58;;;0.40;99.90;;;;;;5081477;28;20198;-51
2021/12/10 07:48:08;;;;;;;94.05;47.88;;;0.30;99.90;;;;;;5080565;28;20214;-51
2021/12/10 07:50:52;;;;;;;101.03;51.45;;;0.30;99.90;;;;;;5081031;28;20330;-49
2021/12/10 07:53:23;;;;;;;101.35;50.72;;;0.40;99.90;;;;;;5081489;28;20202;-51
2021/12/10 07:55:51;;;;;;;101.50;52.25;;;0.40;99.90;;;;;;5080918;28;20233;-51
2021/12/10 07:58:19;;;;;;;103.43;53.15;;;0.30;99.90;;;;;;5080389;28;20199;-52
2021/12/10 08:00:47;;;;;;;92.60;48.17;;;0.30;99.90;;;;;;5081232;28;20226;-54
2021/12/10 08:03:15;;;;;;;88.20;49.38;;;0.30;99.90;;;;;;5080600;28;20199;-57
2021/12/10 08:05:43;;;;;;;88.07;46.28;;;0.40;99.90;;;;;;5081214;28;20460;-52
2021/12/10 08:08:11;;;;;;;94.57;46.70;;;0.40;99.90;;;;;;5083654;28;20257;-58
2021/12/10 08:10:42;;;;;;;91.15;48.75;;;0.50;99.90;;;;;;5085967;28;20194;-55
2021/12/10 08:13:09;;;;;;;75.80;41.55;;;0.50;99.90;;;;;;5087983;28;20183;-55
2021/12/10 08:15:37;;;;;;;83.13;46.55;;;0.50;99.90;;;;;;5089123;28;20217;-52
2021/12/10 08:18:06;;;;;;;87.68;49.72;;;0.60;99.90;;;;;;5082141;28;20637;-52
2021/12/10 08:20:36;;;;;;;71.85;42.65;;;0.60;99.90;;;;;;5083784;28;20233;-55
2021/12/10 08:23:05;;;;;;;70.97;44.85;;;0.70;99.90;;;;;;5083377;28;20203;-52
2021/12/10 08:25:32;;;;;;;84.55;46.17;;;0.90;99.90;;;;;;5080932;28;20525;-54
2021/12/10 08:28:00;;;;;;;82.30;44.97;;;1.00;99.90;;;;;;5080370;28;20230;-50
2021/12/10 08:30:28;;;;;;;73.22;43.35;;;0.90;99.90;;;;;;5080760;28;20391;-52
2021/12/10 08:32:57;;;;;;;87.05;44.72;;;0.90;99.90;;;;;;5080041;28;20207;-51
2021/12/10 08:35:29;;;;;;;82.85;44.78;;;0.90;99.90;;;;;;5079519;28;20202;-49
2021/12/10 08:38:01;;;;;;;102.20;51.05;;;0.90;99.90;;;;;;5080093;28;20199;-55
2021/12/10 08:40:35;;;;;;;77.63;43.72;;;0.80;99.90;;;;;;5080386;28;20264;-51
2021/12/10 08:43:04;;;;;;;88.38;45.08;;;0.80;99.90;;;;;;5080159;28;20225;-56
2021/12/10 08:45:33;;;;;;;90.45;45.45;;;0.80;99.90;;;;;;5080898;28;20199;-56
2021/12/10 08:48:02;;;;;;;81.22;47.60;;;0.80;99.90;;;;;;5080621;28;20272;-53
2021/12/10 08:50:30;;;;;;;90.30;43.72;;;0.90;99.90;;;;;;5081340;28;20249;-53
2021/12/10 08:53:02;;;;;;;83.50;45.42;;;1.00;99.90;;;;;;5080880;28;20223;-49
2021/12/10 08:55:32;;;;;;;91.85;45.75;;;1.20;99.90;;;;;;5080920;28;20195;-51
2021/12/10 08:58:00;;;;;;;85.55;46.85;;;1.00;99.90;;;;;;5080776;28;20238;-56
2021/12/10 09:00:28;;;;;;;82.25;40.72;;;1.20;99.90;;;;;;5080578;28;20198;-51
2021/12/10 09:02:57;;;;;;;110.88;53.40;;;1.20;99.90;;;;;;5080828;28;20238;-51
2021/12/10 09:05:25;;;;;;;93.35;48.63;;;1.10;99.90;;;;;;5080450;28;20215;-49
2021/12/10 09:07:53;;;;;;;100.60;50.53;;;1.30;99.90;;;;;;5080510;28;20264;-51
2021/12/10 09:10:25;;;;;;;90.05;44.33;;;1.40;99.90;;;;;;5080499;28;20659;-51
2021/12/10 09:12:53;;;;;;;88.18;41.95;;;1.40;99.90;;;;;;5080270;28;20219;-51
2021/12/10 09:15:22;;;;;;;73.85;43.83;;;1.30;99.90;;;;;;5080862;28;20225;-53
2021/12/10 09:17:52;;;;;;;80.53;42.75;;;1.30;99.90;;;;;;5079793;28;20240;-51
2021/12/10 09:20:30;;;;;;;88.20;46.17;;;1.50;99.90;;;;;;5080422;28;20198;-49
2021/12/10 09:22:58;;;;;;;72.32;38.42;;;1.70;99.90;;;;;;5079219;28;20244;-51
2021/12/10 09:25:27;;;;;;;83.07;36.65;;;1.90;99.90;;;;;;5079994;28;20210;-52
2021/12/10 09:27:55;;;;;;;69.43;35.50;;;2.10;99.90;;;;;;5079351;28;20222;-51
2021/12/10 09:30:25;;;;;;;71.18;37.08;;;2.20;99.90;;;;;;5077452;28;20533;-49
2021/12/10 09:32:53;;;;;;;59.50;32.83;;;2.30;99.90;;;;;;5073540;28;20237;-53
2021/12/10 09:35:24;;;;;;;52.25;31.17;;;2.30;99.90;;;;;;5079683;28;20294;-55
2021/12/10 09:37:51;;;;;;;53.60;31.60;;;2.10;99.90;;;;;;5076799;28;20272;-55
2021/12/10 09:40:25;;;;;;;62.65;35.13;;;2.40;99.90;;;;;;5078509;28;20206;-57
2021/12/10 09:42:55;;;;;;;49.85;28.70;;;2.40;99.90;;;;;;5062496;28;20214;-54
2021/12/10 09:45:24;;;;;;;48.72;30.65;;;2.20;99.90;;;;;;5066304;28;20221;-52
2021/12/10 09:47:52;;;;;;;60.80;29.60;;;2.20;99.90;;;;;;5055043;28;20565;-50
2021/12/10 09:50:23;;;;;;;59.85;31.40;;;2.30;99.90;;;;;;5075894;28;20223;-50
2021/12/10 09:52:51;;;;;;;54.03;28.77;;;2.20;99.90;;;;;;5083434;28;20268;-55
2021/12/10 09:55:19;;;;;;;53.92;28.98;;;2.30;99.90;;;;;;5083255;28;20412;-51
2021/12/10 09:57:49;;;;;;;53.03;31.20;;;2.30;99.90;;;;;;5085706;28;20222;-54
2021/12/10 10:00:52;;;;;;;53.17;28.95;;;2.30;99.90;;;;;;5088079;28;20263;-51
2021/12/10 10:03:23;;;;;;;51.50;32.08;;;2.50;99.90;;;;;;5085281;28;20213;-52
2021/12/10 10:05:51;;;;;;;61.33;31.85;;;2.50;99.90;;;;;;5083825;28;20210;-54
2021/12/10 10:08:22;;;;;;;57.58;32.25;;;2.80;99.90;;;;;;5083945;28;20276;-50
2021/12/10 10:10:52;;;;;;;54.90;31.38;;;2.70;99.90;;;;;;5083806;28;20204;-55
2021/12/10 10:13:23;;;;;;;69.80;33.83;;;2.60;99.90;;;;;;5083510;28;20444;-57
2021/12/10 10:15:56;;;;;;;55.78;30.50;;;2.50;99.90;;;;;;5083360;28;20203;-54
2021/12/10 10:18:23;;;;;;;52.88;32.50;;;2.80;99.90;;;;;;5083213;28;20233;-52
2021/12/10 10:20:56;;;;;;;63.78;32.03;;;2.90;99.90;;;;;;5083263;28;20206;-54
2021/12/10 10:23:24;;;;;;;61.33;32.70;;;2.90;99.90;;;;;;5082980;28;20203;-52
2021/12/10 10:25:54;;;;;;;50.58;30.08;;;2.90;99.90;;;;;;5083060;28;20502;-54
2021/12/10 10:28:22;;;;;;;48.35;29.90;;;2.80;99.90;;;;;;5082827;28;20225;-54
2021/12/10 10:31:18;;;;;;;55.22;33.33;;;2.90;99.90;;;;;;5083105;28;20316;-54
2021/12/10 10:33:50;;;;;;;46.40;28.60;;;3.00;99.90;;;;;;5077424;28;20441;-55
2021/12/10 10:36:22;;;;;;;56.72;31.40;;;2.90;99.90;;;;;;5083117;28;20195;-55
2021/12/10 10:38:55;;;;;;;49.55;27.98;;;2.90;99.90;;;;;;5083020;28;20207;-56
2021/12/10 10:41:25;;;;;;;39.78;26.27;;;2.80;99.90;;;;;;5082742;28;20219;-52
2021/12/10 10:43:53;;;;;;;51.17;26.02;;;3.00;99.90;;;;;;5082792;28;20196;-54
2021/12/10 10:46:21;;;;;;;51.00;28.90;;;3.10;99.90;;;;;;5082564;28;20253;-55
2021/12/10 10:48:48;;;;;;;40.83;23.45;;;3.20;99.90;;;;;;5082651;28;20220;-53
2021/12/10 10:51:27;;;;;;;41.42;22.92;;;3.10;99.90;;;;;;5078955;28;20338;-56
2021/12/10 10:53:57;;;;;;;45.25;26.23;;;3.10;99.90;;;;;;5069253;28;20204;-59
2021/12/10 10:56:35;;;;;;;40.30;25.00;;;3.40;99.90;;;;;;5068840;28;20239;-59
2021/12/10 10:59:16;;;;;;;41.45;24.60;;;3.50;99.90;;;;;;5068316;28;20204;-58
2021/12/10 11:01:57;;;;;;;37.33;22.52;;;3.80;99.90;;;;;;5068694;28;20272;-55
2021/12/10 11:04:34;;;;;;;43.42;24.38;;;3.70;99.90;;;;;;5072305;28;20243;-52
2021/12/10 11:07:10;;;;;;;44.33;24.45;;;3.70;99.90;;;;;;5082631;28;20203;-54
2021/12/10 11:10:05;;;;;;;34.13;20.52;;;3.80;99.90;;;;;;5072521;28;20250;-56
2021/12/10 11:12:40;;;;;;;38.75;22.17;;;3.50;99.90;;;;;;5070056;28;20221;-56
2021/12/10 11:15:13;;;;;;;46.55;22.08;;;3.50;99.90;;;;;;5081212;28;20437;-55
2021/12/10 11:17:50;;;;;;;42.90;25.85;;;3.50;99.90;;;;;;5081345;28;20233;-54
2021/12/10 11:20:35;;;;;;;37.05;23.80;;;3.50;99.90;;;;;;5081646;28;20204;-58
2021/12/10 11:23:07;;;;;;;42.67;25.20;;;3.60;99.90;;;;;;5070297;28;20206;-55
2021/12/10 11:25:36;;;;;;;40.63;23.60;;;3.70;99.90;;;;;;5076970;28;20212;-61
2021/12/10 11:28:10;;;;;;;40.45;24.20;;;3.90;99.90;;;;;;5081637;28;20208;-57
2021/12/10 11:30:42;;;;;;;41.03;25.08;;;3.80;99.90;;;;;;5078523;28;20392;-58
2021/12/10 11:33:13;;;;;;;43.22;21.65;;;3.80;99.90;;;;;;5067526;28;20204;-58
2021/12/10 11:35:51;;;;;;;39.03;22.15;;;3.60;99.90;;;;;;5049886;28;20203;-56
2021/12/10 11:38:28;;;;;;;37.83;21.83;;;3.40;99.90;;;;;;5067440;28;20286;-56
2021/12/10 11:41:04;;;;;;;34.80;20.45;;;3.10;99.90;;;;;;5068186;28;20569;-57
2021/12/10 11:44:06;;;;;;;35.20;21.20;;;2.80;99.90;;;;;;5065847;28;20250;-58
2021/12/10 11:49:16;;;;;;;40.30;24.17;;;2.60;99.90;;;;;;5067779;28;20235;-57
2021/12/10 11:51:58;;;;;;;36.13;20.35;;;2.60;99.90;;;;;;5065672;28;20215;-60
2021/12/10 11:54:38;;;;;;;38.33;21.45;;;2.60;99.90;;;;;;5070633;28;20200;-55
2021/12/10 11:57:13;;;;;;;32.53;20.83;;;2.60;99.90;;;;;;5081202;28;20190;-57
2021/12/10 12:00:07;;;;;;;34.80;22.33;;;2.60;99.90;;;;;;5081382;28;20198;-59
2021/12/10 12:02:57;;;;;;;50.67;22.83;;;2.40;99.90;;;;;;5080935;28;20254;-59
2021/12/10 12:05:29;;;;;;;35.70;23.10;;;2.40;99.90;;;;;;5073037;28;20226;-57
2021/12/10 12:08:00;;;;;;;41.75;25.08;;;2.40;99.90;;;;;;5081139;28;20231;-60
2021/12/10 12:10:38;;;;;;;37.22;23.88;;;2.30;99.90;;;;;;5080891;28;20505;-60
2021/12/10 12:13:21;;;;;;;36.80;21.70;;;2.30;99.90;;;;;;5080922;28;20263;-58
2021/12/10 12:16:06;;;;;;;37.22;23.67;;;2.30;99.90;;;;;;5081555;28;20194;-56
2021/12/10 12:18:38;;;;;;;38.67;21.23;;;2.30;99.90;;;;;;5085529;28;20202;-58
2021/12/10 12:26:42;;;;;;;42.97;26.15;;;2.50;99.90;;;;;;5080682;28;20210;-61
2021/12/10 12:29:38;;;;;;;38.38;21.17;;;2.60;99.90;;;;;;5080839;28;20517;-57
2021/12/10 12:32:15;;;;;;;37.35;21.83;;;2.60;99.90;;;;;;5080475;28;20246;-62
2021/12/10 12:34:43;;;;;;;33.33;20.60;;;2.50;99.90;;;;;;5081336;28;20224;-58
2021/12/10 12:37:13;;;;;;;31.98;20.23;;;2.40;99.90;;;;;;5082768;28;20199;-57
2021/12/10 12:40:03;;;;;;;33.60;21.05;;;2.30;99.90;;;;;;5081178;28;20208;-56
2021/12/10 12:42:44;;;;;;;41.85;22.27;;;2.30;99.90;;;;;;5080474;28;20216;-52
2021/12/10 12:45:14;;;;;;;27.77;21.15;;;2.20;99.90;;;;;;5080515;28;20430;-56
2021/12/10 12:48:09;;;;;;;38.17;20.73;;;2.20;99.90;;;;;;5079959;28;20195;-55
2021/12/10 12:50:45;;;;;;;40.08;24.58;;;2.20;99.90;;;;;;5080123;28;20501;-57
2021/12/10 12:53:20;;;;;;;45.10;26.33;;;2.30;99.90;;;;;;5062516;28;20194;-55
2021/12/10 12:55:50;;;;;;;43.67;24.10;;;2.30;99.90;;;;;;5080216;28;20239;-58
2021/12/10 12:58:24;;;;;;;38.72;22.60;;;2.30;99.90;;;;;;5080199;28;20201;-58
2021/12/10 13:01:17;;;;;;;36.47;21.85;;;2.20;99.90;;;;;;5065670;28;20211;-58
2021/12/10 13:03:57;;;;;;;37.40;21.70;;;2.20;99.90;;;;;;5079825;28;20195;-59
2021/12/10 13:06:51;;;;;;;29.13;20.00;;;2.20;99.90;;;;;;5079982;28;20194;-58
2021/12/10 13:09:25;;;;;;;30.15;19.02;;;2.20;99.90;;;;;;5079910;28;20244;-56
2021/12/10 13:15:04;;;;;;;31.05;19.55;;;2.10;99.90;;;;;;5049421;28;20195;-58
2021/12/10 13:17:37;;;;;;;31.83;17.00;;;2.30;99.90;;;;;;5082750;28;20191;-58
2021/12/10 13:20:12;;;;;;;24.58;16.85;;;2.30;99.90;;;;;;5080897;28;20229;-55